sensor_id;sensor_type;location;lat;lon;timestamp;temperature;humidity
66144;SHT31;52947;50.842;6.084;2023-07-29T00:01:25;19.59;91.21
66144;SHT31;52947;50.842;6.084;2023-07-29T00:03:53;19.62;91.34
66144;SHT31;52947;50.842;6.084;2023-07-29T00:06:21;19.77;91.26
66144;SHT31;52947;50.842;6.084;2023-07-29T00:08:50;19.87;90.85
66144;SHT31;52947;50.842;6.084;2023-07-29T00:11:18;19.81;90.68
66144;SHT31;52947;50.842;6.084;2023-07-29T00:13:46;19.74;90.97
66144;SHT31;52947;50.842;6.084;2023-07-29T00:16:16;19.69;90.81
66144;SHT31;52947;50.842;6.084;2023-07-29T00:18:44;19.71;90.98
66144;SHT31;52947;50.842;6.084;2023-07-29T00:21:12;19.77;91.38
66144;SHT31;52947;50.842;6.084;2023-07-29T00:23:40;19.80;90.75
66144;SHT31;52947;50.842;6.084;2023-07-29T00:26:10;19.80;90.88
66144;SHT31;52947;50.842;6.084;2023-07-29T00:28:37;19.75;90.92
66144;SHT31;52947;50.842;6.084;2023-07-29T00:31:05;19.66;91.29
66144;SHT31;52947;50.842;6.084;2023-07-29T00:33:34;19.64;91.69
66144;SHT31;52947;50.842;6.084;2023-07-29T00:36:02;19.75;91.49
66144;SHT31;52947;50.842;6.084;2023-07-29T00:38:30;19.75;91.43
66144;SHT31;52947;50.842;6.084;2023-07-29T00:40:58;19.75;91.49
66144;SHT31;52947;50.842;6.084;2023-07-29T00:43:28;19.74;91.34
66144;SHT31;52947;50.842;6.084;2023-07-29T00:45:56;19.81;90.96
66144;SHT31;52947;50.842;6.084;2023-07-29T00:48:25;19.83;90.81
66144;SHT31;52947;50.842;6.084;2023-07-29T00:50:53;19.84;91.07
66144;SHT31;52947;50.842;6.084;2023-07-29T00:53:21;19.78;91.19
66144;SHT31;52947;50.842;6.084;2023-07-29T00:55:49;19.81;91.36
66144;SHT31;52947;50.842;6.084;2023-07-29T00:58:17;19.78;91.69
66144;SHT31;52947;50.842;6.084;2023-07-29T01:00:47;19.73;91.69
66144;SHT31;52947;50.842;6.084;2023-07-29T01:03:17;19.71;92.25
66144;SHT31;52947;50.842;6.084;2023-07-29T01:05:50;19.59;92.62
66144;SHT31;52947;50.842;6.084;2023-07-29T01:08:31;19.50;93.01
66144;SHT31;52947;50.842;6.084;2023-07-29T01:11:05;19.53;93.07
66144;SHT31;52947;50.842;6.084;2023-07-29T01:13:41;19.46;93.20
66144;SHT31;52947;50.842;6.084;2023-07-29T01:16:17;19.42;93.74
66144;SHT31;52947;50.842;6.084;2023-07-29T01:18:47;19.39;93.68
66144;SHT31;52947;50.842;6.084;2023-07-29T01:21:16;19.49;93.29
66144;SHT31;52947;50.842;6.084;2023-07-29T01:23:46;19.47;93.36
66144;SHT31;52947;50.842;6.084;2023-07-29T01:26:14;19.45;93.54
66144;SHT31;52947;50.842;6.084;2023-07-29T01:28:42;19.43;93.52
66144;SHT31;52947;50.842;6.084;2023-07-29T01:31:20;19.46;93.40
66144;SHT31;52947;50.842;6.084;2023-07-29T01:33:56;19.49;93.22
66144;SHT31;52947;50.842;6.084;2023-07-29T01:36:28;19.50;93.46
66144;SHT31;52947;50.842;6.084;2023-07-29T01:38:59;19.42;93.66
66144;SHT31;52947;50.842;6.084;2023-07-29T01:41:28;19.43;93.53
66144;SHT31;52947;50.842;6.084;2023-07-29T01:43:57;19.52;93.19
66144;SHT31;52947;50.842;6.084;2023-07-29T01:46:25;19.45;93.47
66144;SHT31;52947;50.842;6.084;2023-07-29T01:48:53;19.45;93.57
66144;SHT31;52947;50.842;6.084;2023-07-29T01:51:21;19.53;93.05
66144;SHT31;52947;50.842;6.084;2023-07-29T01:53:49;19.50;92.92
66144;SHT31;52947;50.842;6.084;2023-07-29T01:56:18;19.49;92.98
66144;SHT31;52947;50.842;6.084;2023-07-29T01:58:53;19.46;93.10
66144;SHT31;52947;50.842;6.084;2023-07-29T02:01:21;19.47;93.10
66144;SHT31;52947;50.842;6.084;2023-07-29T02:03:49;19.39;93.19
66144;SHT31;52947;50.842;6.084;2023-07-29T02:06:22;19.32;93.45
66144;SHT31;52947;50.842;6.084;2023-07-29T02:08:51;19.39;93.44
66144;SHT31;52947;50.842;6.084;2023-07-29T02:11:20;19.37;93.35
66144;SHT31;52947;50.842;6.084;2023-07-29T02:13:54;19.36;93.27
66144;SHT31;52947;50.842;6.084;2023-07-29T02:16:23;19.33;93.41
66144;SHT31;52947;50.842;6.084;2023-07-29T02:18:50;19.27;93.63
66144;SHT31;52947;50.842;6.084;2023-07-29T02:21:22;19.19;93.83
66144;SHT31;52947;50.842;6.084;2023-07-29T02:23:50;19.15;94.11
66144;SHT31;52947;50.842;6.084;2023-07-29T02:26:19;19.15;93.95
66144;SHT31;52947;50.842;6.084;2023-07-29T02:28:47;19.11;94.18
66144;SHT31;52947;50.842;6.084;2023-07-29T02:31:16;19.06;94.03
66144;SHT31;52947;50.842;6.084;2023-07-29T02:33:45;19.06;94.20
66144;SHT31;52947;50.842;6.084;2023-07-29T02:36:19;19.06;94.09
66144;SHT31;52947;50.842;6.084;2023-07-29T02:38:47;19.12;93.73
66144;SHT31;52947;50.842;6.084;2023-07-29T02:41:15;19.05;94.00
66144;SHT31;52947;50.842;6.084;2023-07-29T02:43:48;18.98;94.06
66144;SHT31;52947;50.842;6.084;2023-07-29T02:46:16;18.98;94.17
66144;SHT31;52947;50.842;6.084;2023-07-29T02:48:44;19.02;94.06
66144;SHT31;52947;50.842;6.084;2023-07-29T02:51:12;19.02;94.14
66144;SHT31;52947;50.842;6.084;2023-07-29T02:53:40;18.92;94.28
66144;SHT31;52947;50.842;6.084;2023-07-29T02:56:08;18.88;94.80
66144;SHT31;52947;50.842;6.084;2023-07-29T02:58:37;18.87;94.68
66144;SHT31;52947;50.842;6.084;2023-07-29T03:01:07;18.89;94.37
66144;SHT31;52947;50.842;6.084;2023-07-29T03:03:36;18.79;94.65
66144;SHT31;52947;50.842;6.084;2023-07-29T03:06:06;18.71;94.99
66144;SHT31;52947;50.842;6.084;2023-07-29T03:08:35;18.72;94.72
66144;SHT31;52947;50.842;6.084;2023-07-29T03:11:05;18.69;94.93
66144;SHT31;52947;50.842;6.084;2023-07-29T03:13:34;18.67;95.13
66144;SHT31;52947;50.842;6.084;2023-07-29T03:16:05;18.67;94.75
66144;SHT31;52947;50.842;6.084;2023-07-29T03:18:35;18.67;94.81
66144;SHT31;52947;50.842;6.084;2023-07-29T03:21:04;18.65;94.66
66144;SHT31;52947;50.842;6.084;2023-07-29T03:23:33;18.60;94.63
66144;SHT31;52947;50.842;6.084;2023-07-29T03:26:02;18.60;94.85
66144;SHT31;52947;50.842;6.084;2023-07-29T03:28:39;18.52;94.99
66144;SHT31;52947;50.842;6.084;2023-07-29T03:31:07;18.61;94.50
66144;SHT31;52947;50.842;6.084;2023-07-29T03:33:37;18.71;94.46
66144;SHT31;52947;50.842;6.084;2023-07-29T03:36:05;18.78;94.07
66144;SHT31;52947;50.842;6.084;2023-07-29T03:38:33;18.94;93.15
66144;SHT31;52947;50.842;6.084;2023-07-29T03:41:02;19.01;92.85
66144;SHT31;52947;50.842;6.084;2023-07-29T03:43:30;18.99;92.62
66144;SHT31;52947;50.842;6.084;2023-07-29T03:46:00;19.02;92.34
66144;SHT31;52947;50.842;6.084;2023-07-29T03:48:29;19.09;92.81
66144;SHT31;52947;50.842;6.084;2023-07-29T03:50:59;19.15;92.09
66144;SHT31;52947;50.842;6.084;2023-07-29T03:53:27;19.16;91.92
66144;SHT31;52947;50.842;6.084;2023-07-29T03:55:55;19.15;91.89
66144;SHT31;52947;50.842;6.084;2023-07-29T03:58:23;19.20;91.83
66144;SHT31;52947;50.842;6.084;2023-07-29T04:00:51;19.12;91.51
66144;SHT31;52947;50.842;6.084;2023-07-29T04:03:19;18.81;92.28
66144;SHT31;52947;50.842;6.084;2023-07-29T04:05:48;18.88;92.19
66144;SHT31;52947;50.842;6.084;2023-07-29T04:08:19;18.92;91.67
66144;SHT31;52947;50.842;6.084;2023-07-29T04:10:47;19.06;91.52
66144;SHT31;52947;50.842;6.084;2023-07-29T04:13:16;19.09;91.52
66144;SHT31;52947;50.842;6.084;2023-07-29T04:15:44;19.02;90.72
66144;SHT31;52947;50.842;6.084;2023-07-29T04:18:12;18.95;90.81
66144;SHT31;52947;50.842;6.084;2023-07-29T04:20:41;18.94;91.12
66144;SHT31;52947;50.842;6.084;2023-07-29T04:23:09;18.92;91.17
66144;SHT31;52947;50.842;6.084;2023-07-29T04:25:39;19.01;90.24
66144;SHT31;52947;50.842;6.084;2023-07-29T04:28:06;18.88;90.87
66144;SHT31;52947;50.842;6.084;2023-07-29T04:30:34;18.72;91.34
66144;SHT31;52947;50.842;6.084;2023-07-29T04:33:03;18.62;91.24
66144;SHT31;52947;50.842;6.084;2023-07-29T04:35:31;18.64;91.69
66144;SHT31;52947;50.842;6.084;2023-07-29T04:37:58;18.64;91.13
66144;SHT31;52947;50.842;6.084;2023-07-29T04:40:26;18.64;90.97
66144;SHT31;52947;50.842;6.084;2023-07-29T04:42:56;18.58;91.67
66144;SHT31;52947;50.842;6.084;2023-07-29T04:45:27;18.62;91.27
66144;SHT31;52947;50.842;6.084;2023-07-29T04:47:56;18.43;91.51
66144;SHT31;52947;50.842;6.084;2023-07-29T04:50:24;18.36;91.99
66144;SHT31;52947;50.842;6.084;2023-07-29T04:52:52;18.29;92.11
66144;SHT31;52947;50.842;6.084;2023-07-29T04:55:20;18.31;92.92
66144;SHT31;52947;50.842;6.084;2023-07-29T04:57:48;18.36;92.61
66144;SHT31;52947;50.842;6.084;2023-07-29T05:00:17;18.34;91.91
66144;SHT31;52947;50.842;6.084;2023-07-29T05:02:45;18.43;92.34
66144;SHT31;52947;50.842;6.084;2023-07-29T05:05:13;18.45;92.38
66144;SHT31;52947;50.842;6.084;2023-07-29T05:07:42;18.52;92.51
66144;SHT31;52947;50.842;6.084;2023-07-29T05:10:10;18.68;92.04
66144;SHT31;52947;50.842;6.084;2023-07-29T05:12:38;18.88;91.33
66144;SHT31;52947;50.842;6.084;2023-07-29T05:15:07;18.95;91.29
66144;SHT31;52947;50.842;6.084;2023-07-29T05:17:36;19.11;90.77
66144;SHT31;52947;50.842;6.084;2023-07-29T05:20:06;19.01;90.97
66144;SHT31;52947;50.842;6.084;2023-07-29T05:22:34;19.13;90.92
66144;SHT31;52947;50.842;6.084;2023-07-29T05:25:03;19.24;90.27
66144;SHT31;52947;50.842;6.084;2023-07-29T05:27:31;19.29;90.23
66144;SHT31;52947;50.842;6.084;2023-07-29T05:29:58;19.24;90.64
66144;SHT31;52947;50.842;6.084;2023-07-29T05:32:26;19.18;90.53
66144;SHT31;52947;50.842;6.084;2023-07-29T05:34:56;19.09;90.42
66144;SHT31;52947;50.842;6.084;2023-07-29T05:37:24;19.06;91.05
66144;SHT31;52947;50.842;6.084;2023-07-29T05:39:51;19.12;90.76
66144;SHT31;52947;50.842;6.084;2023-07-29T05:42:19;19.15;91.04
66144;SHT31;52947;50.842;6.084;2023-07-29T05:44:47;19.13;90.93
66144;SHT31;52947;50.842;6.084;2023-07-29T05:47:15;19.34;90.13
66144;SHT31;52947;50.842;6.084;2023-07-29T05:49:43;19.56;89.95
66144;SHT31;52947;50.842;6.084;2023-07-29T05:52:12;19.62;89.68
66144;SHT31;52947;50.842;6.084;2023-07-29T05:54:41;19.59;89.59
66144;SHT31;52947;50.842;6.084;2023-07-29T05:57:10;19.56;89.28
66144;SHT31;52947;50.842;6.084;2023-07-29T05:59:38;19.49;89.02
66144;SHT31;52947;50.842;6.084;2023-07-29T06:02:07;19.50;89.59
66144;SHT31;52947;50.842;6.084;2023-07-29T06:04:35;19.43;89.45
66144;SHT31;52947;50.842;6.084;2023-07-29T06:07:04;19.66;89.11
66144;SHT31;52947;50.842;6.084;2023-07-29T06:09:33;20.26;87.99
66144;SHT31;52947;50.842;6.084;2023-07-29T06:12:02;20.28;86.96
66144;SHT31;52947;50.842;6.084;2023-07-29T06:14:30;20.12;86.93
66144;SHT31;52947;50.842;6.084;2023-07-29T06:16:58;19.85;87.23
66144;SHT31;52947;50.842;6.084;2023-07-29T06:19:26;19.63;88.43
66144;SHT31;52947;50.842;6.084;2023-07-29T06:21:55;19.42;88.91
66144;SHT31;52947;50.842;6.084;2023-07-29T06:24:23;19.40;88.79
66144;SHT31;52947;50.842;6.084;2023-07-29T06:26:52;19.50;89.06
66144;SHT31;52947;50.842;6.084;2023-07-29T06:29:20;19.67;88.90
66144;SHT31;52947;50.842;6.084;2023-07-29T06:31:48;19.63;88.31
66144;SHT31;52947;50.842;6.084;2023-07-29T06:34:18;19.64;88.22
66144;SHT31;52947;50.842;6.084;2023-07-29T06:36:46;19.90;87.83
66144;SHT31;52947;50.842;6.084;2023-07-29T06:39:13;19.74;87.42
66144;SHT31;52947;50.842;6.084;2023-07-29T06:41:41;19.66;87.84
66144;SHT31;52947;50.842;6.084;2023-07-29T06:44:12;19.70;87.45
66144;SHT31;52947;50.842;6.084;2023-07-29T06:46:40;19.81;86.98
66144;SHT31;52947;50.842;6.084;2023-07-29T06:49:08;19.87;87.47
66144;SHT31;52947;50.842;6.084;2023-07-29T06:51:36;19.91;87.13
66144;SHT31;52947;50.842;6.084;2023-07-29T06:54:04;19.77;86.49
66144;SHT31;52947;50.842;6.084;2023-07-29T06:56:32;19.78;87.07
66144;SHT31;52947;50.842;6.084;2023-07-29T06:59:00;20.56;85.29
66144;SHT31;52947;50.842;6.084;2023-07-29T07:01:29;21.11;84.60
66144;SHT31;52947;50.842;6.084;2023-07-29T07:03:57;20.93;84.21
66144;SHT31;52947;50.842;6.084;2023-07-29T07:06:25;21.22;83.38
66144;SHT31;52947;50.842;6.084;2023-07-29T07:08:53;21.28;83.05
66144;SHT31;52947;50.842;6.084;2023-07-29T07:11:21;21.17;83.29
66144;SHT31;52947;50.842;6.084;2023-07-29T07:13:49;21.30;82.60
66144;SHT31;52947;50.842;6.084;2023-07-29T07:16:16;21.94;81.44
66144;SHT31;52947;50.842;6.084;2023-07-29T07:18:46;23.07;78.81
66144;SHT31;52947;50.842;6.084;2023-07-29T07:21:14;24.74;74.81
66144;SHT31;52947;50.842;6.084;2023-07-29T07:23:41;26.45;72.19
66144;SHT31;52947;50.842;6.084;2023-07-29T07:26:09;26.93;67.64
66144;SHT31;52947;50.842;6.084;2023-07-29T07:28:37;27.27;67.59
66144;SHT31;52947;50.842;6.084;2023-07-29T07:31:08;26.17;66.55
66144;SHT31;52947;50.842;6.084;2023-07-29T07:33:36;24.82;71.08
66144;SHT31;52947;50.842;6.084;2023-07-29T07:36:05;24.99;71.16
66144;SHT31;52947;50.842;6.084;2023-07-29T07:38:33;25.76;69.75
66144;SHT31;52947;50.842;6.084;2023-07-29T07:41:01;25.25;69.80
66144;SHT31;52947;50.842;6.084;2023-07-29T07:43:30;24.92;70.90
66144;SHT31;52947;50.842;6.084;2023-07-29T07:45:58;24.02;71.95
66144;SHT31;52947;50.842;6.084;2023-07-29T07:48:27;23.22;73.95
66144;SHT31;52947;50.842;6.084;2023-07-29T07:50:55;23.29;75.59
66144;SHT31;52947;50.842;6.084;2023-07-29T07:53:24;22.87;75.54
66144;SHT31;52947;50.842;6.084;2023-07-29T07:55:53;22.56;76.41
66144;SHT31;52947;50.842;6.084;2023-07-29T07:58:21;22.39;76.74
66144;SHT31;52947;50.842;6.084;2023-07-29T08:00:49;22.09;77.30
66144;SHT31;52947;50.842;6.084;2023-07-29T08:03:17;21.88;78.88
66144;SHT31;52947;50.842;6.084;2023-07-29T08:05:45;21.59;78.61
66144;SHT31;52947;50.842;6.084;2023-07-29T08:08:13;21.86;79.64
66144;SHT31;52947;50.842;6.084;2023-07-29T08:10:42;21.96;77.31
66144;SHT31;52947;50.842;6.084;2023-07-29T08:13:10;21.75;77.61
66144;SHT31;52947;50.842;6.084;2023-07-29T08:15:38;21.69;78.44
66144;SHT31;52947;50.842;6.084;2023-07-29T08:18:07;22.67;75.58
66144;SHT31;52947;50.842;6.084;2023-07-29T08:20:35;23.10;75.14
66144;SHT31;52947;50.842;6.084;2023-07-29T08:23:03;23.22;74.81
66144;SHT31;52947;50.842;6.084;2023-07-29T08:25:31;23.17;74.04
66144;SHT31;52947;50.842;6.084;2023-07-29T08:28:00;23.69;73.35
66144;SHT31;52947;50.842;6.084;2023-07-29T08:30:28;24.13;71.53
66144;SHT31;52947;50.842;6.084;2023-07-29T08:32:56;24.00;72.13
66144;SHT31;52947;50.842;6.084;2023-07-29T08:35:24;23.93;71.12
66144;SHT31;52947;50.842;6.084;2023-07-29T08:37:52;23.76;70.71
66144;SHT31;52947;50.842;6.084;2023-07-29T08:40:25;24.14;71.54
66144;SHT31;52947;50.842;6.084;2023-07-29T08:42:56;24.64;70.40
66144;SHT31;52947;50.842;6.084;2023-07-29T08:45:27;24.47;70.08
66144;SHT31;52947;50.842;6.084;2023-07-29T08:47:57;24.51;70.71
66144;SHT31;52947;50.842;6.084;2023-07-29T08:50:26;24.26;69.61
66144;SHT31;52947;50.842;6.084;2023-07-29T08:52:54;23.86;71.41
66144;SHT31;52947;50.842;6.084;2023-07-29T08:55:23;23.01;71.78
66144;SHT31;52947;50.842;6.084;2023-07-29T08:57:51;22.86;73.93
66144;SHT31;52947;50.842;6.084;2023-07-29T09:00:20;22.76;74.44
66144;SHT31;52947;50.842;6.084;2023-07-29T09:02:49;22.53;74.98
66144;SHT31;52947;50.842;6.084;2023-07-29T09:05:18;22.08;75.32
66144;SHT31;52947;50.842;6.084;2023-07-29T09:07:46;22.02;75.95
66144;SHT31;52947;50.842;6.084;2023-07-29T09:10:15;21.81;76.69
66144;SHT31;52947;50.842;6.084;2023-07-29T09:12:43;21.75;77.32
66144;SHT31;52947;50.842;6.084;2023-07-29T09:15:11;21.74;78.23
66144;SHT31;52947;50.842;6.084;2023-07-29T09:17:40;21.82;78.12
66144;SHT31;52947;50.842;6.084;2023-07-29T09:20:11;21.68;77.80
66144;SHT31;52947;50.842;6.084;2023-07-29T09:22:39;21.41;78.55
66144;SHT31;52947;50.842;6.084;2023-07-29T09:25:07;21.02;79.06
66144;SHT31;52947;50.842;6.084;2023-07-29T09:27:35;20.80;79.72
66144;SHT31;52947;50.842;6.084;2023-07-29T09:30:07;20.77;80.75
66144;SHT31;52947;50.842;6.084;2023-07-29T09:32:42;20.77;80.60
66144;SHT31;52947;50.842;6.084;2023-07-29T09:35:12;20.82;80.33
66144;SHT31;52947;50.842;6.084;2023-07-29T09:37:40;20.69;80.18
66144;SHT31;52947;50.842;6.084;2023-07-29T09:40:13;20.36;80.18
66144;SHT31;52947;50.842;6.084;2023-07-29T09:42:47;20.29;81.34
66144;SHT31;52947;50.842;6.084;2023-07-29T09:45:20;20.45;81.28
66144;SHT31;52947;50.842;6.084;2023-07-29T09:47:49;20.45;81.18
66144;SHT31;52947;50.842;6.084;2023-07-29T09:50:19;20.42;81.57
66144;SHT31;52947;50.842;6.084;2023-07-29T09:52:51;20.46;81.43
66144;SHT31;52947;50.842;6.084;2023-07-29T09:55:20;20.46;81.48
66144;SHT31;52947;50.842;6.084;2023-07-29T09:57:53;20.46;81.04
66144;SHT31;52947;50.842;6.084;2023-07-29T10:00:21;20.75;81.03
66144;SHT31;52947;50.842;6.084;2023-07-29T10:02:49;20.86;79.56
66144;SHT31;52947;50.842;6.084;2023-07-29T10:05:20;20.97;79.51
66144;SHT31;52947;50.842;6.084;2023-07-29T10:07:49;22.49;76.33
66144;SHT31;52947;50.842;6.084;2023-07-29T10:10:18;23.93;72.95
66144;SHT31;52947;50.842;6.084;2023-07-29T10:12:46;25.19;70.50
66144;SHT31;52947;50.842;6.084;2023-07-29T10:15:14;25.33;68.29
66144;SHT31;52947;50.842;6.084;2023-07-29T10:17:42;25.56;68.32
66144;SHT31;52947;50.842;6.084;2023-07-29T10:20:12;25.08;69.37
66144;SHT31;52947;50.842;6.084;2023-07-29T10:22:44;24.71;70.59
66144;SHT31;52947;50.842;6.084;2023-07-29T10:25:17;23.79;71.15
66144;SHT31;52947;50.842;6.084;2023-07-29T10:27:48;23.92;71.49
66144;SHT31;52947;50.842;6.084;2023-07-29T10:30:17;24.33;70.38
66144;SHT31;52947;50.842;6.084;2023-07-29T10:32:45;24.00;71.36
66144;SHT31;52947;50.842;6.084;2023-07-29T10:35:13;23.80;71.32
66144;SHT31;52947;50.842;6.084;2023-07-29T10:37:43;24.02;70.94
66144;SHT31;52947;50.842;6.084;2023-07-29T10:40:12;24.13;71.38
66144;SHT31;52947;50.842;6.084;2023-07-29T10:43:00;25.33;68.80
66144;SHT31;52947;50.842;6.084;2023-07-29T10:45:37;25.79;66.69
66144;SHT31;52947;50.842;6.084;2023-07-29T10:48:06;26.01;65.25
66144;SHT31;52947;50.842;6.084;2023-07-29T10:50:35;26.59;65.64
66144;SHT31;52947;50.842;6.084;2023-07-29T10:53:04;26.63;65.38
66144;SHT31;52947;50.842;6.084;2023-07-29T10:55:33;26.82;64.81
66144;SHT31;52947;50.842;6.084;2023-07-29T10:58:12;26.92;64.33
66144;SHT31;52947;50.842;6.084;2023-07-29T11:00:42;26.75;65.18
66144;SHT31;52947;50.842;6.084;2023-07-29T11:03:12;27.12;64.84
66144;SHT31;52947;50.842;6.084;2023-07-29T11:05:46;25.97;66.59
66144;SHT31;52947;50.842;6.084;2023-07-29T11:08:21;25.07;68.96
66144;SHT31;52947;50.842;6.084;2023-07-29T11:11:01;24.94;69.37
66144;SHT31;52947;50.842;6.084;2023-07-29T11:13:30;25.73;68.62
66144;SHT31;52947;50.842;6.084;2023-07-29T11:15:59;26.51;66.91
66144;SHT31;52947;50.842;6.084;2023-07-29T11:18:29;26.14;66.44
66144;SHT31;52947;50.842;6.084;2023-07-29T11:20:58;25.73;67.43
66144;SHT31;52947;50.842;6.084;2023-07-29T11:23:31;25.59;67.80
66144;SHT31;52947;50.842;6.084;2023-07-29T11:26:00;25.50;68.21
66144;SHT31;52947;50.842;6.084;2023-07-29T11:28:28;26.00;66.52
66144;SHT31;52947;50.842;6.084;2023-07-29T11:30:57;27.07;64.62
66144;SHT31;52947;50.842;6.084;2023-07-29T11:33:26;26.67;65.19
66144;SHT31;52947;50.842;6.084;2023-07-29T11:35:55;26.90;63.62
66144;SHT31;52947;50.842;6.084;2023-07-29T11:38:23;27.09;63.51
66144;SHT31;52947;50.842;6.084;2023-07-29T11:41:00;27.39;63.20
66144;SHT31;52947;50.842;6.084;2023-07-29T11:43:29;27.40;61.60
66144;SHT31;52947;50.842;6.084;2023-07-29T11:46:00;27.49;62.20
66144;SHT31;52947;50.842;6.084;2023-07-29T11:48:32;27.70;61.56
66144;SHT31;52947;50.842;6.084;2023-07-29T11:51:00;28.48;60.35
66144;SHT31;52947;50.842;6.084;2023-07-29T11:53:30;28.26;61.13
66144;SHT31;52947;50.842;6.084;2023-07-29T11:55:59;28.35;61.35
66144;SHT31;52947;50.842;6.084;2023-07-29T11:58:28;27.82;61.01
66144;SHT31;52947;50.842;6.084;2023-07-29T12:00:56;28.08;61.61
66144;SHT31;52947;50.842;6.084;2023-07-29T12:03:25;28.31;59.90
66144;SHT31;52947;50.842;6.084;2023-07-29T12:05:54;28.12;60.90
66144;SHT31;52947;50.842;6.084;2023-07-29T12:08:22;28.51;59.56
66144;SHT31;52947;50.842;6.084;2023-07-29T12:10:50;28.86;61.34
66144;SHT31;52947;50.842;6.084;2023-07-29T12:13:23;27.77;61.90
66144;SHT31;52947;50.842;6.084;2023-07-29T12:15:51;26.89;63.45
66144;SHT31;52947;50.842;6.084;2023-07-29T12:18:29;25.49;66.04
66144;SHT31;52947;50.842;6.084;2023-07-29T12:20:57;25.07;67.53
66144;SHT31;52947;50.842;6.084;2023-07-29T12:23:26;24.69;68.84
66144;SHT31;52947;50.842;6.084;2023-07-29T12:25:56;24.27;70.31
66144;SHT31;52947;50.842;6.084;2023-07-29T12:28:26;24.03;70.98
66144;SHT31;52947;50.842;6.084;2023-07-29T12:30:55;23.82;71.17
66144;SHT31;52947;50.842;6.084;2023-07-29T12:33:30;23.76;74.96
66144;SHT31;52947;50.842;6.084;2023-07-29T12:35:58;23.51;76.36
66144;SHT31;52947;50.842;6.084;2023-07-29T12:38:26;23.18;76.69
66144;SHT31;52947;50.842;6.084;2023-07-29T12:40:55;22.61;77.44
66144;SHT31;52947;50.842;6.084;2023-07-29T12:43:23;22.19;80.67
66144;SHT31;52947;50.842;6.084;2023-07-29T12:45:53;21.85;81.88
66144;SHT31;52947;50.842;6.084;2023-07-29T12:48:21;21.50;82.69
66144;SHT31;52947;50.842;6.084;2023-07-29T12:50:49;21.38;83.43
66144;SHT31;52947;50.842;6.084;2023-07-29T12:53:18;21.26;83.67
66144;SHT31;52947;50.842;6.084;2023-07-29T12:55:46;21.22;84.41
66144;SHT31;52947;50.842;6.084;2023-07-29T12:58:14;20.97;85.31
66144;SHT31;52947;50.842;6.084;2023-07-29T13:00:42;20.57;86.13
66144;SHT31;52947;50.842;6.084;2023-07-29T13:03:11;20.15;86.71
66144;SHT31;52947;50.842;6.084;2023-07-29T13:05:39;19.84;88.06
66144;SHT31;52947;50.842;6.084;2023-07-29T13:08:07;19.97;87.41
66144;SHT31;52947;50.842;6.084;2023-07-29T13:10:39;20.01;86.94
66144;SHT31;52947;50.842;6.084;2023-07-29T13:13:07;20.05;86.36
66144;SHT31;52947;50.842;6.084;2023-07-29T13:15:35;20.14;85.35
66144;SHT31;52947;50.842;6.084;2023-07-29T13:18:03;20.11;85.37
66144;SHT31;52947;50.842;6.084;2023-07-29T13:20:33;20.21;85.31
66144;SHT31;52947;50.842;6.084;2023-07-29T13:23:01;20.38;84.15
66144;SHT31;52947;50.842;6.084;2023-07-29T13:25:29;20.46;83.87
66144;SHT31;52947;50.842;6.084;2023-07-29T13:27:57;20.52;84.24
66144;SHT31;52947;50.842;6.084;2023-07-29T13:30:25;20.59;83.47
66144;SHT31;52947;50.842;6.084;2023-07-29T13:32:54;20.75;83.65
66144;SHT31;52947;50.842;6.084;2023-07-29T13:35:22;20.85;82.36
66144;SHT31;52947;50.842;6.084;2023-07-29T13:37:51;20.86;82.44
66144;SHT31;52947;50.842;6.084;2023-07-29T13:40:19;21.11;82.61
66144;SHT31;52947;50.842;6.084;2023-07-29T13:42:47;21.26;82.23
66144;SHT31;52947;50.842;6.084;2023-07-29T13:45:15;21.33;82.29
66144;SHT31;52947;50.842;6.084;2023-07-29T13:47:43;21.51;82.07
66144;SHT31;52947;50.842;6.084;2023-07-29T13:50:11;21.67;82.18
66144;SHT31;52947;50.842;6.084;2023-07-29T13:52:39;21.65;82.46
66144;SHT31;52947;50.842;6.084;2023-07-29T13:55:09;21.61;81.85
66144;SHT31;52947;50.842;6.084;2023-07-29T13:57:38;21.45;83.41
66144;SHT31;52947;50.842;6.084;2023-07-29T14:00:07;21.55;83.27
66144;SHT31;52947;50.842;6.084;2023-07-29T14:02:38;21.82;82.01
66144;SHT31;52947;50.842;6.084;2023-07-29T14:05:07;21.86;82.27
66144;SHT31;52947;50.842;6.084;2023-07-29T14:07:35;21.75;82.31
66144;SHT31;52947;50.842;6.084;2023-07-29T14:10:04;21.61;83.11
66144;SHT31;52947;50.842;6.084;2023-07-29T14:12:33;21.58;83.54
66144;SHT31;52947;50.842;6.084;2023-07-29T14:15:01;21.47;84.27
66144;SHT31;52947;50.842;6.084;2023-07-29T14:17:29;21.68;83.68
66144;SHT31;52947;50.842;6.084;2023-07-29T14:19:57;21.28;85.22
66144;SHT31;52947;50.842;6.084;2023-07-29T14:22:25;21.48;83.57
66144;SHT31;52947;50.842;6.084;2023-07-29T14:24:53;21.51;84.13
66144;SHT31;52947;50.842;6.084;2023-07-29T14:27:22;21.33;85.59
66144;SHT31;52947;50.842;6.084;2023-07-29T14:29:51;21.37;85.09
66144;SHT31;52947;50.842;6.084;2023-07-29T14:32:19;21.55;84.20
66144;SHT31;52947;50.842;6.084;2023-07-29T14:34:49;21.59;84.83
66144;SHT31;52947;50.842;6.084;2023-07-29T14:37:17;21.64;84.73
66144;SHT31;52947;50.842;6.084;2023-07-29T14:39:45;21.31;85.93
66144;SHT31;52947;50.842;6.084;2023-07-29T14:42:13;21.51;84.61
66144;SHT31;52947;50.842;6.084;2023-07-29T14:44:42;21.53;84.17
66144;SHT31;52947;50.842;6.084;2023-07-29T14:47:11;21.31;85.49
66144;SHT31;52947;50.842;6.084;2023-07-29T14:49:39;21.17;85.43
66144;SHT31;52947;50.842;6.084;2023-07-29T14:52:07;21.06;85.21
66144;SHT31;52947;50.842;6.084;2023-07-29T14:54:35;21.04;85.10
66144;SHT31;52947;50.842;6.084;2023-07-29T14:57:05;21.06;85.36
66144;SHT31;52947;50.842;6.084;2023-07-29T14:59:33;21.06;84.89
66144;SHT31;52947;50.842;6.084;2023-07-29T15:02:01;21.08;85.28
66144;SHT31;52947;50.842;6.084;2023-07-29T15:04:31;20.99;85.73
66144;SHT31;52947;50.842;6.084;2023-07-29T15:06:59;20.94;86.01
66144;SHT31;52947;50.842;6.084;2023-07-29T15:09:27;20.99;86.38
66144;SHT31;52947;50.842;6.084;2023-07-29T15:11:54;20.93;87.30
66144;SHT31;52947;50.842;6.084;2023-07-29T15:14:25;20.85;87.24
66144;SHT31;52947;50.842;6.084;2023-07-29T15:16:53;20.93;87.44
66144;SHT31;52947;50.842;6.084;2023-07-29T15:19:20;21.08;87.14
66144;SHT31;52947;50.842;6.084;2023-07-29T15:21:50;21.30;87.15
66144;SHT31;52947;50.842;6.084;2023-07-29T15:24:18;21.55;86.18
66144;SHT31;52947;50.842;6.084;2023-07-29T15:26:45;21.77;87.13
66144;SHT31;52947;50.842;6.084;2023-07-29T15:29:13;22.02;86.30
66144;SHT31;52947;50.842;6.084;2023-07-29T15:31:41;22.06;86.15
66144;SHT31;52947;50.842;6.084;2023-07-29T15:34:09;22.23;86.06
66144;SHT31;52947;50.842;6.084;2023-07-29T15:36:37;22.30;85.19
66144;SHT31;52947;50.842;6.084;2023-07-29T15:39:07;22.49;85.43
66144;SHT31;52947;50.842;6.084;2023-07-29T15:41:35;22.33;85.56